Time;durP1;ratioP1;P1;durP2;ratioP2;P2;SDS_P1;SDS_P2;PMS_P1;PMS_P2;Temp;Humidity;BMP_temperature;BMP_pressure;BME280_temperature;BME280_humidity;BME280_pressure;Samples;Min_cycle;Max_cycle;Signal;HPM_P1;HPM_P2
2022/05/08 00:00:04;;;;;;;13.53;8.87;;;12.60;99.90;;;;;;165797;29;1409;-64
2022/05/08 00:00:11;;;;;;;13.35;8.68;;;12.60;99.90;;;;;;166533;29;1114;-63
2022/05/08 00:00:17;;;;;;;13.40;8.37;;;12.70;99.90;;;;;;166451;29;1089;-65
2022/05/08 00:00:23;;;;;;;13.53;8.40;;;12.60;99.90;;;;;;166569;29;1165;-63
2022/05/08 00:00:28;;;;;;;11.98;8.13;;;12.60;99.90;;;;;;166555;29;990;-62
2022/05/08 00:00:34;;;;;;;11.27;7.88;;;12.60;99.90;;;;;;165196;29;1726;-66
2022/05/08 00:00:40;;;;;;;10.82;7.90;;;12.60;99.90;;;;;;164679;29;1360;-65
2022/05/08 00:00:46;;;;;;;10.45;7.88;;;12.60;99.90;;;;;;165130;29;1128;-63
2022/05/08 00:00:51;;;;;;;9.53;7.63;;;12.60;99.90;;;;;;165414;29;905;-62
2022/05/08 00:00:58;;;;;;;10.20;7.65;;;12.70;99.90;;;;;;165657;29;1195;-63
2022/05/08 00:01:04;;;;;;;10.43;7.73;;;12.60;99.90;;;;;;166527;29;1397;-62
2022/05/08 00:01:09;;;;;;;11.48;7.80;;;12.60;99.90;;;;;;164746;29;1252;-62
2022/05/08 00:01:15;;;;;;;11.68;7.97;;;12.70;99.90;;;;;;165377;29;968;-65
2022/05/08 00:01:21;;;;;;;11.93;8.13;;;12.60;99.90;;;;;;165376;29;1067;-66
2022/05/08 00:01:27;;;;;;;12.23;8.23;;;12.70;99.90;;;;;;165003;29;1513;-63
2022/05/08 00:01:35;;;;;;;12.13;8.27;;;12.60;99.90;;;;;;165896;29;1904;-62
2022/05/08 00:01:40;;;;;;;13.03;8.43;;;12.60;99.90;;;;;;166451;29;1437;-64
2022/05/08 00:01:46;;;;;;;13.10;8.32;;;12.70;99.90;;;;;;166460;29;952;-64
2022/05/08 00:01:52;;;;;;;12.55;8.23;;;12.70;99.90;;;;;;166379;29;1561;-65
2022/05/08 00:01:57;;;;;;;12.57;8.27;;;12.60;99.90;;;;;;166633;29;935;-63
2022/05/08 00:02:04;;;;;;;13.02;8.20;;;12.60;99.90;;;;;;165846;29;1200;-63
2022/05/08 00:02:09;;;;;;;12.30;8.17;;;12.70;99.90;;;;;;165582;29;1370;-62
2022/05/08 00:02:16;;;;;;;12.00;8.15;;;12.60;99.90;;;;;;166492;29;1071;-65
2022/05/08 00:02:22;;;;;;;12.35;8.18;;;12.60;99.90;;;;;;166591;29;1465;-63
2022/05/08 00:02:28;;;;;;;11.60;8.07;;;12.60;99.90;;;;;;165926;29;997;-65
2022/05/08 00:02:38;;;;;;;11.13;7.93;;;12.70;99.90;;;;;;165158;29;1586;-62
2022/05/08 00:02:44;;;;;;;12.34;7.91;;;12.70;99.90;;;;;;165134;29;1215;-64
2022/05/08 00:02:54;;;;;;;13.05;8.15;;;12.70;99.90;;;;;;165121;29;1964;-65
2022/05/08 00:03:00;;;;;;;14.01;8.31;;;12.60;99.90;;;;;;165027;29;1160;-64
2022/05/08 00:03:05;;;;;;;14.20;8.20;;;12.60;99.90;;;;;;165338;29;1045;-63
2022/05/08 00:03:11;;;;;;;11.88;8.07;;;12.60;99.90;;;;;;166060;29;1240;-64
2022/05/08 00:03:17;;;;;;;11.57;8.13;;;12.60;99.90;;;;;;166309;29;1742;-64
2022/05/08 00:03:23;;;;;;;10.97;7.83;;;12.60;99.90;;;;;;166373;29;1081;-63
2022/05/08 00:03:29;;;;;;;10.05;7.72;;;12.70;99.90;;;;;;165259;29;977;-63
2022/05/08 00:03:35;;;;;;;10.40;7.87;;;12.70;99.90;;;;;;165208;29;1311;-67
2022/05/08 00:03:41;;;;;;;11.20;8.00;;;12.70;99.90;;;;;;165298;29;1369;-64
2022/05/08 00:03:47;;;;;;;11.30;7.93;;;12.70;99.90;;;;;;164770;30;877;-64
2022/05/08 00:03:52;;;;;;;11.45;7.85;;;12.70;99.90;;;;;;164422;30;1069;-63
2022/05/08 00:03:58;;;;;;;11.48;7.88;;;12.70;99.90;;;;;;166052;29;824;-62
2022/05/08 00:04:04;;;;;;;11.47;7.87;;;12.70;99.90;;;;;;166405;29;1399;-63
2022/05/08 00:04:10;;;;;;;10.80;7.72;;;12.70;99.90;;;;;;165996;29;885;-62
2022/05/08 00:04:15;;;;;;;10.80;7.60;;;12.60;99.90;;;;;;165924;29;1196;-63
2022/05/08 00:04:21;;;;;;;10.43;7.68;;;12.70;99.90;;;;;;166516;29;1023;-63
2022/05/08 00:04:27;;;;;;;11.07;7.73;;;12.60;99.90;;;;;;166619;29;953;-63
2022/05/08 00:04:33;;;;;;;11.10;7.68;;;12.70;99.90;;;;;;166365;29;1463;-63
2022/05/08 00:04:39;;;;;;;11.88;7.96;;;12.70;99.90;;;;;;166510;29;1456;-65
2022/05/08 00:04:45;;;;;;;12.20;8.27;;;12.70;99.90;;;;;;165223;29;1322;-66
2022/05/08 00:04:53;;;;;;;12.43;8.10;;;12.60;99.90;;;;;;166049;29;893;-66
2022/05/08 00:04:58;;;;;;;12.72;8.16;;;12.60;99.90;;;;;;165648;29;1277;-62
2022/05/08 00:05:05;;;;;;;13.17;8.17;;;12.70;99.90;;;;;;165971;29;1038;-63
2022/05/08 00:05:12;;;;;;;13.20;7.73;;;12.60;99.90;;;;;;164406;30;1230;-65
2022/05/08 00:05:18;;;;;;;13.78;7.84;;;12.60;99.90;;;;;;165914;29;1738;-65
2022/05/08 00:05:25;;;;;;;13.93;8.13;;;12.60;99.90;;;;;;165549;29;1786;-62
2022/05/08 00:05:31;;;;;;;13.56;7.96;;;12.60;99.90;;;;;;165921;29;1992;-66
2022/05/08 00:05:37;;;;;;;12.80;7.93;;;12.60;99.90;;;;;;165870;29;1181;-65
2022/05/08 00:05:42;;;;;;;12.98;8.20;;;12.60;99.90;;;;;;164756;30;891;-63
2022/05/08 00:05:48;;;;;;;12.87;7.93;;;12.60;99.90;;;;;;165289;29;925;-67
2022/05/08 00:05:54;;;;;;;12.63;7.82;;;12.60;99.90;;;;;;165853;29;1449;-62
2022/05/08 00:06:02;;;;;;;13.93;8.05;;;12.60;99.90;;;;;;165258;29;1350;-63
2022/05/08 00:06:10;;;;;;;14.47;8.10;;;12.60;99.90;;;;;;165494;29;1611;-64
2022/05/08 00:06:16;;;;;;;12.98;8.07;;;12.60;99.90;;;;;;166657;29;1403;-67
2022/05/08 00:06:22;;;;;;;12.20;8.05;;;12.60;99.90;;;;;;166623;29;1625;-62
2022/05/08 00:06:28;;;;;;;10.80;7.63;;;12.60;99.90;;;;;;166546;29;890;-63
2022/05/08 00:06:33;;;;;;;9.65;7.63;;;12.60;99.90;;;;;;166883;29;1316;-62
2022/05/08 00:06:39;;;;;;;10.05;7.85;;;12.60;99.90;;;;;;165875;29;2032;-63
2022/05/08 00:06:45;;;;;;;10.23;7.80;;;12.60;99.90;;;;;;165723;29;1250;-63
2022/05/08 00:06:51;;;;;;;10.45;7.72;;;12.60;99.90;;;;;;166080;29;818;-63
2022/05/08 00:06:56;;;;;;;11.73;8.07;;;12.60;99.90;;;;;;165808;29;1555;-64
2022/05/08 00:07:02;;;;;;;12.37;8.23;;;12.60;99.90;;;;;;166542;29;1323;-62
2022/05/08 00:07:08;;;;;;;11.97;8.03;;;12.60;99.90;;;;;;166223;29;1504;-65
2022/05/08 00:07:14;;;;;;;11.23;7.78;;;12.60;99.90;;;;;;165013;29;1209;-63
2022/05/08 00:07:21;;;;;;;10.98;7.75;;;12.60;99.90;;;;;;165876;29;1510;-65
2022/05/08 00:07:27;;;;;;;10.82;7.68;;;12.60;99.90;;;;;;165761;29;971;-66
2022/05/08 00:07:32;;;;;;;10.45;7.55;;;12.60;99.90;;;;;;165383;29;940;-62
2022/05/08 00:07:38;;;;;;;10.20;7.40;;;12.60;99.90;;;;;;164885;29;1616;-64
2022/05/08 00:07:44;;;;;;;10.50;7.65;;;12.60;99.90;;;;;;165342;29;913;-63
2022/05/08 00:07:50;;;;;;;10.30;7.53;;;12.60;99.90;;;;;;165834;29;974;-64
2022/05/08 00:07:55;;;;;;;9.43;7.40;;;12.70;99.90;;;;;;165404;29;1010;-64
2022/05/08 00:08:01;;;;;;;9.30;7.45;;;12.70;99.90;;;;;;165867;29;1231;-65
2022/05/08 00:08:07;;;;;;;9.88;7.63;;;12.60;99.90;;;;;;165164;29;2704;-64
2022/05/08 00:08:13;;;;;;;10.23;7.72;;;12.60;99.90;;;;;;164979;29;996;-62
2022/05/08 00:08:19;;;;;;;11.83;7.80;;;12.60;99.90;;;;;;165796;29;1041;-62
2022/05/08 00:08:25;;;;;;;12.57;7.75;;;12.60;99.90;;;;;;164778;30;790;-62
2022/05/08 00:08:31;;;;;;;12.07;7.55;;;12.60;99.90;;;;;;166057;29;1353;-65
2022/05/08 00:08:40;;;;;;;12.30;7.70;;;12.60;99.90;;;;;;166205;29;1707;-65
2022/05/08 00:08:45;;;;;;;11.83;7.39;;;12.70;99.90;;;;;;167029;29;1244;-63
2022/05/08 00:08:51;;;;;;;10.35;7.43;;;12.70;99.90;;;;;;167181;29;923;-64
2022/05/08 00:08:58;;;;;;;10.82;7.85;;;12.70;99.90;;;;;;167688;29;1229;-63
2022/05/08 00:09:03;;;;;;;10.77;7.95;;;12.70;99.90;;;;;;166607;29;932;-62
2022/05/08 00:09:09;;;;;;;10.05;7.57;;;12.70;99.90;;;;;;166753;29;917;-62
2022/05/08 00:09:15;;;;;;;9.85;7.68;;;12.70;99.90;;;;;;167138;29;980;-64
2022/05/08 00:09:21;;;;;;;10.10;7.93;;;12.70;99.90;;;;;;166539;29;1199;-64
2022/05/08 00:09:27;;;;;;;10.25;7.78;;;12.70;99.90;;;;;;165870;29;1325;-64
2022/05/08 00:09:33;;;;;;;10.68;7.78;;;12.70;99.90;;;;;;165953;29;904;-64
2022/05/08 00:09:38;;;;;;;10.63;7.90;;;12.70;99.90;;;;;;166433;29;944;-63
2022/05/08 00:09:45;;;;;;;10.23;7.88;;;12.70;99.90;;;;;;166565;29;892;-63
2022/05/08 00:09:51;;;;;;;9.64;7.54;;;12.70;99.90;;;;;;165754;29;1314;-64
2022/05/08 00:09:57;;;;;;;8.90;7.40;;;12.70;99.90;;;;;;166067;29;861;-62
2022/05/08 00:10:03;;;;;;;8.53;7.33;;;12.70;99.90;;;;;;164890;29;1594;-65
2022/05/08 00:10:09;;;;;;;9.17;7.40;;;12.70;99.90;;;;;;164682;30;924;-63
2022/05/08 00:10:15;;;;;;;9.90;7.57;;;12.70;99.90;;;;;;165578;29;1831;-65
2022/05/08 00:10:21;;;;;;;10.13;7.57;;;12.70;99.90;;;;;;165313;29;1652;-64
2022/05/08 00:10:26;;;;;;;9.80;7.47;;;12.70;99.90;;;;;;166574;29;1245;-63
2022/05/08 00:10:32;;;;;;;9.82;7.20;;;12.70;99.90;;;;;;166901;29;1759;-64
2022/05/08 00:10:40;;;;;;;9.80;7.20;;;12.70;99.90;;;;;;167756;29;1275;-63
2022/05/08 00:10:45;;;;;;;9.68;7.18;;;12.70;99.90;;;;;;167491;29;968;-62
2022/05/08 00:10:51;;;;;;;9.77;7.30;;;12.70;99.90;;;;;;166640;29;959;-64
2022/05/08 00:10:57;;;;;;;10.13;7.53;;;12.70;99.90;;;;;;166429;29;1149;-63
2022/05/08 00:11:02;;;;;;;10.20;7.67;;;12.70;99.90;;;;;;166633;29;913;-63
2022/05/08 00:11:08;;;;;;;9.77;7.47;;;12.70;99.90;;;;;;165432;29;1065;-62
2022/05/08 00:11:14;;;;;;;9.60;7.30;;;12.70;99.90;;;;;;165307;29;876;-64
2022/05/08 00:11:20;;;;;;;10.27;7.30;;;12.70;99.90;;;;;;165281;29;1225;-62
2022/05/08 00:11:25;;;;;;;11.25;7.35;;;12.70;99.90;;;;;;165868;29;913;-63
2022/05/08 00:11:31;;;;;;;11.77;7.43;;;12.70;99.90;;;;;;165742;29;2408;-67
2022/05/08 00:11:37;;;;;;;11.10;7.30;;;12.70;99.90;;;;;;165807;29;1937;-65
2022/05/08 00:11:43;;;;;;;11.57;7.43;;;12.70;99.90;;;;;;166016;29;1036;-62
2022/05/08 00:11:48;;;;;;;10.68;7.30;;;12.70;99.90;;;;;;165809;29;1116;-62
2022/05/08 00:11:54;;;;;;;10.32;7.50;;;12.80;99.90;;;;;;165835;29;1213;-62
2022/05/08 00:12:00;;;;;;;10.07;7.47;;;12.80;99.90;;;;;;165999;29;789;-62
2022/05/08 00:12:06;;;;;;;10.63;7.50;;;12.70;99.90;;;;;;165219;29;1436;-65
2022/05/08 00:12:15;;;;;;;10.68;7.50;;;12.70;99.90;;;;;;165219;29;1153;-64
2022/05/08 00:12:20;;;;;;;12.00;7.40;;;12.80;99.90;;;;;;164421;30;1080;-67
2022/05/08 00:12:26;;;;;;;11.68;6.93;;;12.70;99.90;;;;;;164728;30;834;-63
2022/05/08 00:12:32;;;;;;;11.15;7.00;;;12.70;99.90;;;;;;165549;29;1771;-62
2022/05/08 00:12:38;;;;;;;11.10;6.93;;;12.70;99.90;;;;;;166021;29;928;-62
2022/05/08 00:12:44;;;;;;;11.02;6.93;;;12.70;99.90;;;;;;166434;29;1001;-62
2022/05/08 00:12:49;;;;;;;9.63;7.03;;;12.70;99.90;;;;;;165974;29;716;-63
2022/05/08 00:12:55;;;;;;;9.57;7.10;;;12.70;99.90;;;;;;166642;29;1027;-63
2022/05/08 00:13:01;;;;;;;9.87;7.10;;;12.70;99.90;;;;;;167022;29;1197;-65
2022/05/08 00:13:09;;;;;;;10.65;7.47;;;12.70;99.90;;;;;;167134;29;1228;-65
2022/05/08 00:13:15;;;;;;;11.03;7.58;;;12.70;99.90;;;;;;165374;29;1003;-62
2022/05/08 00:13:21;;;;;;;11.40;7.72;;;12.70;99.90;;;;;;164805;29;1022;-65
2022/05/08 00:13:27;;;;;;;11.23;7.78;;;12.70;99.90;;;;;;165191;29;1524;-62
2022/05/08 00:13:35;;;;;;;11.15;7.65;;;12.70;99.90;;;;;;164786;30;1295;-62
2022/05/08 00:13:41;;;;;;;10.47;7.50;;;12.70;99.90;;;;;;165919;29;914;-64
2022/05/08 00:13:47;;;;;;;10.52;7.60;;;12.70;99.90;;;;;;165957;29;1007;-64
2022/05/08 00:13:53;;;;;;;10.03;7.40;;;12.70;99.90;;;;;;166376;29;1132;-63
2022/05/08 00:13:59;;;;;;;10.55;7.50;;;12.70;99.90;;;;;;166007;29;880;-63
2022/05/08 00:14:05;;;;;;;10.32;7.50;;;12.70;99.90;;;;;;165876;29;983;-62
2022/05/08 00:14:11;;;;;;;10.63;7.70;;;12.70;99.90;;;;;;166685;29;872;-65
2022/05/08 00:14:16;;;;;;;10.77;7.85;;;12.70;99.90;;;;;;166520;29;1078;-62
2022/05/08 00:14:22;;;;;;;11.30;8.13;;;12.70;99.90;;;;;;166562;29;1045;-64
2022/05/08 00:14:28;;;;;;;11.27;8.18;;;12.70;99.90;;;;;;165889;29;1703;-62
2022/05/08 00:14:34;;;;;;;11.47;8.20;;;12.70;99.90;;;;;;164585;30;1157;-63
2022/05/08 00:14:43;;;;;;;11.38;7.95;;;12.70;99.90;;;;;;165384;29;1011;-64
2022/05/08 00:14:49;;;;;;;10.71;7.25;;;12.70;99.90;;;;;;164749;30;1149;-65
2022/05/08 00:14:55;;;;;;;9.70;6.57;;;12.70;99.90;;;;;;165875;29;1018;-64
2022/05/08 00:15:01;;;;;;;9.63;6.60;;;12.70;99.90;;;;;;166534;29;1035;-63
2022/05/08 00:15:07;;;;;;;9.60;6.80;;;12.70;99.90;;;;;;166571;29;1858;-66
2022/05/08 00:15:13;;;;;;;10.27;6.82;;;12.70;99.90;;;;;;167022;29;1366;-65
2022/05/08 00:15:19;;;;;;;10.68;7.15;;;12.70;99.90;;;;;;166021;29;980;-62
2022/05/08 00:15:24;;;;;;;11.90;7.65;;;12.70;99.90;;;;;;165815;29;1182;-63
2022/05/08 00:15:30;;;;;;;12.25;7.65;;;12.70;99.90;;;;;;166583;29;986;-64
2022/05/08 00:15:36;;;;;;;12.03;7.37;;;12.70;99.90;;;;;;166175;29;1523;-64
2022/05/08 00:15:42;;;;;;;11.77;7.45;;;12.70;99.90;;;;;;166550;29;1268;-62
2022/05/08 00:15:47;;;;;;;11.85;7.43;;;12.70;99.90;;;;;;166492;29;1056;-65
2022/05/08 00:15:53;;;;;;;10.80;7.13;;;12.70;99.90;;;;;;166387;29;1418;-62
2022/05/08 00:16:00;;;;;;;10.27;7.03;;;12.70;99.90;;;;;;167178;29;1202;-62
2022/05/08 00:16:05;;;;;;;9.57;7.00;;;12.70;99.90;;;;;;165677;29;1307;-64
2022/05/08 00:16:11;;;;;;;9.47;7.03;;;12.70;99.90;;;;;;165027;29;1979;-65
2022/05/08 00:16:17;;;;;;;9.18;7.13;;;12.70;99.90;;;;;;166336;29;1230;-66
2022/05/08 00:16:23;;;;;;;9.40;7.15;;;12.70;99.90;;;;;;166460;29;1943;-64
2022/05/08 00:16:28;;;;;;;10.07;7.10;;;12.70;99.90;;;;;;165792;29;1394;-65
2022/05/08 00:16:34;;;;;;;10.43;7.03;;;12.70;99.90;;;;;;165610;29;1721;-63
2022/05/08 00:16:40;;;;;;;10.35;6.85;;;12.70;99.90;;;;;;165934;29;1050;-64
2022/05/08 00:16:46;;;;;;;9.82;6.70;;;12.70;99.90;;;;;;165519;29;922;-65
2022/05/08 00:16:52;;;;;;;10.30;6.70;;;12.70;99.90;;;;;;165297;29;1904;-63
2022/05/08 00:16:57;;;;;;;10.00;6.78;;;12.70;99.90;;;;;;165181;29;1060;-65
2022/05/08 00:17:04;;;;;;;10.27;7.10;;;12.70;99.90;;;;;;165841;29;1316;-64
2022/05/08 00:17:11;;;;;;;10.32;7.22;;;12.70;99.90;;;;;;166196;29;1032;-63
2022/05/08 00:17:18;;;;;;;11.04;7.30;;;12.70;99.90;;;;;;166314;29;1598;-63
2022/05/08 00:17:24;;;;;;;11.02;7.34;;;12.70;99.90;;;;;;165737;29;1306;-63
2022/05/08 00:17:34;;;;;;;11.30;7.43;;;12.70;99.90;;;;;;165744;29;1276;-63
2022/05/08 00:17:39;;;;;;;10.69;7.11;;;12.70;99.90;;;;;;165022;29;1639;-64
2022/05/08 00:17:45;;;;;;;10.97;7.20;;;12.70;99.90;;;;;;163969;30;1360;-63
2022/05/08 00:17:51;;;;;;;10.38;7.20;;;12.70;99.90;;;;;;163956;30;1075;-65
2022/05/08 00:17:57;;;;;;;9.90;7.15;;;12.80;99.90;;;;;;165298;29;1212;-62
2022/05/08 00:18:03;;;;;;;9.67;7.17;;;12.70;99.90;;;;;;165531;29;1292;-65
2022/05/08 00:18:09;;;;;;;10.20;7.28;;;12.80;99.90;;;;;;164462;29;3121;-65
2022/05/08 00:18:16;;;;;;;10.07;7.35;;;12.70;99.90;;;;;;166637;29;1103;-63
2022/05/08 00:18:23;;;;;;;10.40;7.47;;;12.70;99.90;;;;;;166613;29;1079;-63
2022/05/08 00:18:29;;;;;;;10.43;7.47;;;12.80;99.90;;;;;;165804;29;996;-63
2022/05/08 00:18:34;;;;;;;10.10;7.50;;;12.80;99.90;;;;;;165949;29;888;-64
2022/05/08 00:18:40;;;;;;;9.98;7.50;;;12.80;99.90;;;;;;165861;29;997;-63
2022/05/08 00:18:46;;;;;;;9.73;7.15;;;12.80;99.90;;;;;;165877;29;1313;-64
2022/05/08 00:18:53;;;;;;;10.23;6.93;;;12.80;99.90;;;;;;164666;29;1448;-63
2022/05/08 00:18:59;;;;;;;11.13;7.07;;;12.80;99.90;;;;;;165271;29;1001;-63
2022/05/08 00:19:04;;;;;;;11.17;7.03;;;12.70;99.90;;;;;;164083;30;1331;-64
2022/05/08 00:19:10;;;;;;;10.88;6.95;;;12.80;99.90;;;;;;165061;29;1133;-62
2022/05/08 00:19:16;;;;;;;10.27;6.97;;;12.70;99.90;;;;;;166613;29;1250;-63
2022/05/08 00:19:22;;;;;;;9.40;7.13;;;12.70;99.90;;;;;;165736;29;1157;-65
2022/05/08 00:19:28;;;;;;;8.95;7.05;;;12.70;99.90;;;;;;165275;29;1184;-63
2022/05/08 00:19:34;;;;;;;9.57;7.30;;;12.70;99.90;;;;;;165954;29;1657;-62
2022/05/08 00:19:41;;;;;;;10.63;7.40;;;12.70;99.90;;;;;;165903;29;1098;-63
2022/05/08 00:19:49;;;;;;;10.94;7.36;;;12.70;99.90;;;;;;164650;30;1067;-64
2022/05/08 00:19:56;;;;;;;10.79;7.36;;;12.70;99.90;;;;;;165354;29;1071;-63
2022/05/08 00:20:06;;;;;;;10.43;7.23;;;12.80;99.90;;;;;;166081;29;1420;-65
2022/05/08 00:20:12;;;;;;;9.64;7.09;;;12.70;99.90;;;;;;165259;29;1445;-66
2022/05/08 00:20:18;;;;;;;10.03;7.17;;;12.70;99.90;;;;;;165986;29;1385;-65
2022/05/08 00:20:23;;;;;;;10.20;7.07;;;12.70;99.90;;;;;;166577;29;1047;-64
2022/05/08 00:20:30;;;;;;;10.80;7.15;;;12.70;99.90;;;;;;165686;29;1312;-63
2022/05/08 00:20:35;;;;;;;10.95;7.07;;;12.70;99.90;;;;;;165338;29;1455;-64
2022/05/08 00:20:41;;;;;;;10.73;7.00;;;12.70;99.90;;;;;;166110;29;988;-63
2022/05/08 00:20:47;;;;;;;10.20;6.85;;;12.70;99.90;;;;;;166620;29;944;-62
2022/05/08 00:20:53;;;;;;;10.07;6.93;;;12.70;99.90;;;;;;166385;29;1363;-66
2022/05/08 00:20:58;;;;;;;9.63;6.85;;;12.70;99.90;;;;;;166150;29;1416;-66
2022/05/08 00:21:05;;;;;;;9.77;7.03;;;12.70;99.90;;;;;;166622;29;881;-64
2022/05/08 00:21:11;;;;;;;9.57;7.10;;;12.70;99.90;;;;;;165886;29;1444;-64
2022/05/08 00:21:16;;;;;;;9.83;7.30;;;12.70;99.90;;;;;;165903;29;1639;-62
2022/05/08 00:21:22;;;;;;;10.10;7.28;;;12.70;99.90;;;;;;165790;29;1130;-63
2022/05/08 00:21:28;;;;;;;10.32;7.22;;;12.70;99.90;;;;;;165915;29;1369;-62
2022/05/08 00:21:34;;;;;;;9.83;7.00;;;12.70;99.90;;;;;;165818;29;1043;-66
2022/05/08 00:21:39;;;;;;;10.27;7.07;;;12.70;99.90;;;;;;165870;29;1479;-63
2022/05/08 00:21:45;;;;;;;10.63;6.95;;;12.70;99.90;;;;;;166493;29;1328;-62
2022/05/08 00:21:51;;;;;;;10.90;6.93;;;12.70;99.90;;;;;;166348;29;1176;-66
2022/05/08 00:21:57;;;;;;;11.45;6.90;;;12.70;99.90;;;;;;166530;29;1217;-63
2022/05/08 00:22:02;;;;;;;12.60;7.07;;;12.70;99.90;;;;;;166371;29;1190;-63
2022/05/08 00:22:08;;;;;;;12.55;7.07;;;12.70;99.90;;;;;;166032;29;818;-63
2022/05/08 00:22:15;;;;;;;11.98;6.95;;;12.70;99.90;;;;;;165205;29;1329;-63
2022/05/08 00:22:20;;;;;;;11.45;6.93;;;12.70;99.90;;;;;;165497;29;1494;-63
2022/05/08 00:22:26;;;;;;;10.48;6.95;;;12.70;99.90;;;;;;165869;29;1048;-65
2022/05/08 00:22:32;;;;;;;10.10;6.97;;;12.70;99.90;;;;;;166382;29;1530;-62
2022/05/08 00:22:45;;;;;;;9.90;6.95;;;12.70;99.90;;;;;;166611;29;952;-63
2022/05/08 00:22:50;;;;;;;10.14;7.14;;;12.70;99.90;;;;;;166585;29;1248;-64
2022/05/08 00:22:56;;;;;;;10.75;7.28;;;12.70;99.90;;;;;;166076;29;1219;-63
2022/05/08 00:23:02;;;;;;;10.27;7.13;;;12.70;99.90;;;;;;166537;29;924;-63
2022/05/08 00:23:07;;;;;;;10.52;7.38;;;12.70;99.90;;;;;;166082;29;1233;-65
2022/05/08 00:23:14;;;;;;;10.55;7.40;;;12.70;99.90;;;;;;166516;29;1279;-63
2022/05/08 00:23:19;;;;;;;10.07;7.17;;;12.70;99.90;;;;;;165196;29;1300;-66
2022/05/08 00:23:25;;;;;;;9.45;6.90;;;12.70;99.90;;;;;;165156;29;1596;-67
2022/05/08 00:23:31;;;;;;;10.23;7.23;;;12.70;99.90;;;;;;166647;29;912;-63
2022/05/08 00:23:37;;;;;;;10.37;7.23;;;12.70;99.90;;;;;;165753;29;1343;-63
2022/05/08 00:23:43;;;;;;;10.73;7.28;;;12.60;99.90;;;;;;166342;29;1664;-62
2022/05/08 00:23:48;;;;;;;10.57;6.97;;;12.60;99.90;;;;;;166151;29;1264;-64
2022/05/08 00:23:54;;;;;;;10.90;7.00;;;12.60;99.90;;;;;;166602;29;810;-64
2022/05/08 00:24:00;;;;;;;10.83;6.97;;;12.70;99.90;;;;;;166429;29;1308;-63
2022/05/08 00:24:06;;;;;;;9.73;6.57;;;12.60;99.90;;;;;;165910;29;1231;-63
2022/05/08 00:24:12;;;;;;;9.50;6.37;;;12.70;99.90;;;;;;164725;30;1062;-65
2022/05/08 00:24:18;;;;;;;9.38;6.47;;;12.60;99.90;;;;;;165216;29;920;-64
2022/05/08 00:24:24;;;;;;;11.48;6.55;;;12.70;99.90;;;;;;165400;29;802;-63
2022/05/08 00:24:29;;;;;;;13.07;6.57;;;12.60;99.90;;;;;;165195;29;1299;-63
2022/05/08 00:24:35;;;;;;;13.33;6.63;;;12.60;99.90;;;;;;165096;29;2010;-64
2022/05/08 00:24:41;;;;;;;13.40;6.72;;;12.60;99.90;;;;;;165126;29;1530;-65
2022/05/08 00:24:46;;;;;;;13.55;6.78;;;12.60;99.90;;;;;;165298;29;1007;-63
2022/05/08 00:24:52;;;;;;;12.30;6.68;;;12.60;99.90;;;;;;165225;29;942;-66
2022/05/08 00:25:00;;;;;;;9.23;6.43;;;12.60;99.90;;;;;;165627;29;1241;-63
2022/05/08 00:25:06;;;;;;;8.77;6.30;;;12.60;99.90;;;;;;165943;29;1114;-65
2022/05/08 00:25:12;;;;;;;8.40;6.05;;;12.60;99.90;;;;;;166491;29;1383;-63
2022/05/08 00:25:20;;;;;;;8.03;6.17;;;12.60;99.90;;;;;;166403;29;1754;-67
2022/05/08 00:25:27;;;;;;;8.40;6.23;;;12.60;99.90;;;;;;166446;29;1312;-65
2022/05/08 00:25:33;;;;;;;9.93;6.57;;;12.60;99.90;;;;;;166504;29;916;-64
2022/05/08 00:25:39;;;;;;;10.80;6.88;;;12.60;99.90;;;;;;165797;29;1690;-64
2022/05/08 00:25:44;;;;;;;11.52;7.05;;;12.60;99.90;;;;;;164705;30;983;-65
2022/05/08 00:25:50;;;;;;;11.50;7.00;;;12.50;99.90;;;;;;165141;29;912;-62
2022/05/08 00:25:56;;;;;;;11.57;7.10;;;12.60;99.90;;;;;;165325;29;885;-65
2022/05/08 00:26:01;;;;;;;11.52;6.95;;;12.50;99.90;;;;;;165217;29;1227;-63
2022/05/08 00:26:08;;;;;;;11.63;6.80;;;12.50;99.90;;;;;;164703;30;903;-63
2022/05/08 00:26:13;;;;;;;11.03;6.57;;;12.60;99.90;;;;;;165968;29;1418;-66
2022/05/08 00:26:19;;;;;;;11.23;6.53;;;12.50;99.90;;;;;;166109;29;1350;-64
2022/05/08 00:26:25;;;;;;;10.73;6.50;;;12.60;99.90;;;;;;166391;29;1322;-65
2022/05/08 00:26:31;;;;;;;10.75;6.60;;;12.50;99.90;;;;;;165663;29;2331;-65
2022/05/08 00:26:36;;;;;;;9.80;6.50;;;12.60;99.90;;;;;;166530;29;1348;-62
2022/05/08 00:26:42;;;;;;;10.20;6.57;;;12.50;99.90;;;;;;166661;29;1373;-63
2022/05/08 00:26:48;;;;;;;9.60;6.43;;;12.50;99.90;;;;;;166095;29;1014;-62
2022/05/08 00:26:53;;;;;;;9.73;6.38;;;12.50;99.90;;;;;;166379;29;1385;-63
2022/05/08 00:26:59;;;;;;;9.43;6.33;;;12.50;99.90;;;;;;165869;29;937;-63
2022/05/08 00:27:06;;;;;;;9.02;6.28;;;12.50;99.90;;;;;;166455;29;1208;-65
2022/05/08 00:27:11;;;;;;;8.47;6.20;;;12.50;99.90;;;;;;166304;29;1293;-64
2022/05/08 00:27:17;;;;;;;8.88;6.32;;;12.50;99.90;;;;;;165928;29;1261;-63
2022/05/08 00:27:23;;;;;;;8.68;6.38;;;12.50;99.90;;;;;;165691;29;1146;-62
2022/05/08 00:27:28;;;;;;;8.77;6.47;;;12.50;99.90;;;;;;166002;29;929;-63
2022/05/08 00:27:34;;;;;;;8.90;6.32;;;12.50;99.90;;;;;;165767;29;1071;-63
2022/05/08 00:27:40;;;;;;;9.50;6.38;;;12.50;99.90;;;;;;165244;29;1248;-62
2022/05/08 00:27:47;;;;;;;8.98;6.45;;;12.50;99.90;;;;;;165220;29;1020;-64
2022/05/08 00:27:53;;;;;;;9.27;6.53;;;12.50;99.90;;;;;;165766;29;1281;-64
2022/05/08 00:27:58;;;;;;;9.23;6.32;;;12.50;99.90;;;;;;165813;29;1005;-66
2022/05/08 00:28:04;;;;;;;9.37;6.50;;;12.50;99.90;;;;;;165649;29;1347;-62
2022/05/08 00:28:10;;;;;;;8.65;6.43;;;12.50;99.90;;;;;;165839;29;1353;-65
2022/05/08 00:28:16;;;;;;;8.55;6.18;;;12.50;99.90;;;;;;164488;29;1364;-64
2022/05/08 00:28:22;;;;;;;8.20;5.95;;;12.50;99.90;;;;;;165954;29;873;-64
2022/05/08 00:28:27;;;;;;;8.20;6.10;;;12.50;99.90;;;;;;165676;29;1229;-64
2022/05/08 00:28:36;;;;;;;7.95;6.22;;;12.50;99.90;;;;;;165832;29;1890;-63
2022/05/08 00:28:42;;;;;;;8.40;6.39;;;12.50;99.90;;;;;;165571;29;1461;-63
2022/05/08 00:28:50;;;;;;;8.48;6.50;;;12.50;99.90;;;;;;165891;29;1331;-66
2022/05/08 00:28:56;;;;;;;8.58;6.47;;;12.50;99.90;;;;;;165656;29;1031;-65
2022/05/08 00:29:02;;;;;;;8.90;6.30;;;12.50;99.90;;;;;;165249;29;1088;-65
2022/05/08 00:29:10;;;;;;;8.88;6.24;;;12.50;99.90;;;;;;164823;29;2052;-63
2022/05/08 00:29:16;;;;;;;9.47;6.33;;;12.50;99.90;;;;;;165319;29;991;-63
2022/05/08 00:29:22;;;;;;;9.88;6.40;;;12.50;99.90;;;;;;163849;29;1321;-62
2022/05/08 00:29:28;;;;;;;9.88;6.43;;;12.50;99.90;;;;;;164776;30;1368;-63
2022/05/08 00:29:34;;;;;;;10.60;6.43;;;12.50;99.90;;;;;;165867;29;1208;-63
2022/05/08 00:29:39;;;;;;;10.20;6.28;;;12.50;99.90;;;;;;165935;29;992;-63
2022/05/08 00:29:45;;;;;;;9.68;6.07;;;12.50;99.90;;;;;;166227;29;1380;-64
2022/05/08 00:29:51;;;;;;;11.02;6.40;;;12.50;99.90;;;;;;166368;29;1399;-63
2022/05/08 00:29:57;;;;;;;11.00;6.40;;;12.50;99.90;;;;;;167174;29;1345;-62
2022/05/08 00:30:04;;;;;;;10.57;6.47;;;12.50;99.90;;;;;;166621;29;1493;-64
2022/05/08 00:30:10;;;;;;;10.57;6.73;;;12.50;99.90;;;;;;165952;29;1344;-62
2022/05/08 00:30:16;;;;;;;10.23;6.77;;;12.50;99.90;;;;;;166793;29;1299;-65
2022/05/08 00:30:22;;;;;;;9.13;6.70;;;12.50;99.90;;;;;;166559;29;968;-63
2022/05/08 00:30:28;;;;;;;9.40;6.68;;;12.50;99.90;;;;;;164995;29;1446;-64
2022/05/08 00:30:33;;;;;;;9.13;6.60;;;12.50;99.90;;;;;;165354;29;1099;-62
2022/05/08 00:30:40;;;;;;;9.98;6.68;;;12.50;99.90;;;;;;165256;29;1036;-65
2022/05/08 00:30:46;;;;;;;11.30;6.87;;;12.50;99.90;;;;;;165975;29;889;-64
2022/05/08 00:30:51;;;;;;;11.35;6.82;;;12.50;99.90;;;;;;165947;29;893;-64
2022/05/08 00:30:57;;;;;;;10.55;6.80;;;12.50;99.90;;;;;;164432;30;1406;-62
2022/05/08 00:31:03;;;;;;;10.45;6.78;;;12.50;99.90;;;;;;164735;30;828;-63
2022/05/08 00:31:10;;;;;;;9.70;6.67;;;12.50;99.90;;;;;;164448;30;1192;-64
2022/05/08 00:31:16;;;;;;;8.78;6.65;;;12.50;99.90;;;;;;165282;29;1677;-64
2022/05/08 00:31:23;;;;;;;8.38;6.53;;;12.50;99.90;;;;;;166251;29;1858;-62
2022/05/08 00:31:29;;;;;;;8.20;6.50;;;12.50;99.90;;;;;;166482;29;1343;-64
2022/05/08 00:31:34;;;;;;;8.35;6.50;;;12.50;99.90;;;;;;166349;29;1213;-63
2022/05/08 00:31:41;;;;;;;8.63;6.47;;;12.50;99.90;;;;;;165997;29;826;-63
2022/05/08 00:31:47;;;;;;;8.33;6.30;;;12.50;99.90;;;;;;165787;29;863;-63
2022/05/08 00:31:53;;;;;;;8.10;6.30;;;12.50;99.90;;;;;;165928;29;910;-64
2022/05/08 00:31:59;;;;;;;8.35;6.38;;;12.50;99.90;;;;;;165709;29;1526;-65
2022/05/08 00:32:05;;;;;;;8.25;6.20;;;12.50;99.90;;;;;;165847;29;1383;-65
2022/05/08 00:32:11;;;;;;;7.90;6.17;;;12.40;99.90;;;;;;165909;29;1233;-65
2022/05/08 00:32:18;;;;;;;7.70;6.03;;;12.40;99.90;;;;;;165732;29;1131;-62
2022/05/08 00:32:23;;;;;;;7.92;5.88;;;12.50;99.90;;;;;;165748;29;1129;-66